Aviation Digital Data Service (ADDS)

Output produced by METARs form (2315 UTC 18 April 2014)
found at http://aviationweather.gov/adds/metars/
 
KJHW 182055Z 1821/1918 30012KT P6SM SCT070 
     FM190100 31007KT P6SM BKN250 
     FM190300 36006KT P6SM BKN250 
     FM191600 01011KT P6SM FEW250 AMD LTD TO CLD VIS AND WIND